sensor_id;sensor_type;location;lat;lon;timestamp;pressure;altitude;pressure_sealevel;temperature;humidity
40612;BME280;26317;44.894;20.286;2024-03-08T00:00:23;101004.66;;;8.00;100.00
40612;BME280;26317;44.894;20.286;2024-03-08T00:03:04;101007.34;;;8.00;100.00
40612;BME280;26317;44.894;20.286;2024-03-08T00:05:41;100997.97;;;7.97;100.00
40612;BME280;26317;44.894;20.286;2024-03-08T00:08:31;101006.53;;;7.99;100.00
40612;BME280;26317;44.894;20.286;2024-03-08T00:11:11;101009.69;;;7.96;100.00
40612;BME280;26317;44.894;20.286;2024-03-08T00:13:51;101010.97;;;7.94;100.00
40612;BME280;26317;44.894;20.286;2024-03-08T00:16:33;101007.31;;;7.83;100.00
40612;BME280;26317;44.894;20.286;2024-03-08T00:19:12;101008.03;;;7.78;100.00
40612;BME280;26317;44.894;20.286;2024-03-08T00:21:54;101017.41;;;7.81;100.00
40612;BME280;26317;44.894;20.286;2024-03-08T00:24:42;101016.88;;;7.79;100.00
40612;BME280;26317;44.894;20.286;2024-03-08T00:27:37;101014.09;;;7.74;100.00
40612;BME280;26317;44.894;20.286;2024-03-08T00:30:14;101010.38;;;7.75;100.00
40612;BME280;26317;44.894;20.286;2024-03-08T00:32:57;101011.41;;;7.74;100.00
40612;BME280;26317;44.894;20.286;2024-03-08T00:35:39;101015.50;;;7.76;100.00
40612;BME280;26317;44.894;20.286;2024-03-08T00:38:15;101011.75;;;7.77;100.00
40612;BME280;26317;44.894;20.286;2024-03-08T00:41:10;101010.81;;;7.83;100.00
40612;BME280;26317;44.894;20.286;2024-03-08T00:43:51;101006.28;;;7.84;100.00
40612;BME280;26317;44.894;20.286;2024-03-08T00:46:33;101004.41;;;7.84;100.00
40612;BME280;26317;44.894;20.286;2024-03-08T00:49:23;101006.91;;;7.91;100.00
40612;BME280;26317;44.894;20.286;2024-03-08T00:52:11;101009.50;;;7.86;100.00
40612;BME280;26317;44.894;20.286;2024-03-08T00:55:04;101002.06;;;7.88;100.00
40612;BME280;26317;44.894;20.286;2024-03-08T00:57:57;100996.41;;;7.84;100.00
40612;BME280;26317;44.894;20.286;2024-03-08T01:00:35;101004.06;;;7.81;100.00
40612;BME280;26317;44.894;20.286;2024-03-08T01:03:19;100984.41;;;7.70;100.00
40612;BME280;26317;44.894;20.286;2024-03-08T01:06:11;100992.81;;;7.79;100.00
40612;BME280;26317;44.894;20.286;2024-03-08T01:08:52;100990.72;;;7.81;100.00
40612;BME280;26317;44.894;20.286;2024-03-08T01:11:35;100994.47;;;7.80;100.00
40612;BME280;26317;44.894;20.286;2024-03-08T01:14:32;100996.06;;;7.81;100.00
40612;BME280;26317;44.894;20.286;2024-03-08T01:17:14;100999.31;;;7.83;100.00
40612;BME280;26317;44.894;20.286;2024-03-08T01:19:52;100995.50;;;7.79;100.00
40612;BME280;26317;44.894;20.286;2024-03-08T01:22:39;100983.41;;;7.60;100.00
40612;BME280;26317;44.894;20.286;2024-03-08T01:25:20;101004.47;;;7.73;100.00
40612;BME280;26317;44.894;20.286;2024-03-08T01:28:03;101004.47;;;7.73;100.00
40612;BME280;26317;44.894;20.286;2024-03-08T01:30:45;101007.63;;;7.70;100.00
40612;BME280;26317;44.894;20.286;2024-03-08T01:33:28;101004.47;;;7.73;100.00
40612;BME280;26317;44.894;20.286;2024-03-08T01:36:05;101004.31;;;7.79;100.00
40612;BME280;26317;44.894;20.286;2024-03-08T01:38:57;101007.22;;;7.78;100.00
40612;BME280;26317;44.894;20.286;2024-03-08T01:41:37;101010.38;;;7.75;100.00
40612;BME280;26317;44.894;20.286;2024-03-08T01:44:34;101007.22;;;7.78;100.00
40612;BME280;26317;44.894;20.286;2024-03-08T01:47:19;101004.22;;;7.74;100.00
40612;BME280;26317;44.894;20.286;2024-03-08T01:49:55;101016.03;;;7.78;100.00
40612;BME280;26317;44.894;20.286;2024-03-08T01:52:38;101009.41;;;7.81;100.00
40612;BME280;26317;44.894;20.286;2024-03-08T01:55:41;101015.88;;;7.85;100.00
40612;BME280;26317;44.894;20.286;2024-03-08T01:58:20;101002.06;;;7.88;100.00
40612;BME280;26317;44.894;20.286;2024-03-08T02:00:59;101012.16;;;7.86;100.00
40612;BME280;26317;44.894;20.286;2024-03-08T02:03:37;100984.50;;;7.75;100.00
40612;BME280;26317;44.894;20.286;2024-03-08T02:06:26;101020.84;;;7.93;100.00
40612;BME280;26317;44.894;20.286;2024-03-08T02:09:04;101013.97;;;7.97;100.00
40612;BME280;26317;44.894;20.286;2024-03-08T02:11:52;101015.03;;;7.96;100.00
40612;BME280;26317;44.894;20.286;2024-03-08T02:14:37;101013.41;;;7.95;100.00
40612;BME280;26317;44.894;20.286;2024-03-08T02:17:14;101010.09;;;7.88;100.00
40612;BME280;26317;44.894;20.286;2024-03-08T02:19:57;101012.84;;;7.93;100.00
40612;BME280;26317;44.894;20.286;2024-03-08T02:22:42;101003.22;;;7.92;100.00
40612;BME280;26317;44.894;20.286;2024-03-08T02:25:23;101012.09;;;7.98;100.00
40612;BME280;26317;44.894;20.286;2024-03-08T02:28:07;101000.84;;;7.96;100.00
40612;BME280;26317;44.894;20.286;2024-03-08T02:30:54;101012.19;;;8.03;100.00
40612;BME280;26317;44.894;20.286;2024-03-08T02:33:32;101001.34;;;7.93;100.00
40612;BME280;26317;44.894;20.286;2024-03-08T02:36:23;101013.50;;;8.00;100.00
40612;BME280;26317;44.894;20.286;2024-03-08T02:39:10;101014.53;;;7.99;100.00
40612;BME280;26317;44.894;20.286;2024-03-08T02:41:55;101023.59;;;7.98;100.00
40612;BME280;26317;44.894;20.286;2024-03-08T02:44:34;101010.31;;;8.03;100.00
40612;BME280;26317;44.894;20.286;2024-03-08T02:47:18;101007.75;;;8.08;100.00
40612;BME280;26317;44.894;20.286;2024-03-08T02:50:00;101014.22;;;8.12;100.00
40612;BME280;26317;44.894;20.286;2024-03-08T02:52:37;101013.09;;;8.08;100.00
40612;BME280;26317;44.894;20.286;2024-03-08T02:55:23;101010.91;;;8.05;100.00
40612;BME280;26317;44.894;20.286;2024-03-08T02:58:05;101019.47;;;8.07;100.00
40612;BME280;26317;44.894;20.286;2024-03-08T03:00:43;101020.53;;;8.06;100.00
40612;BME280;26317;44.894;20.286;2024-03-08T03:03:27;101012.50;;;8.06;100.00
40612;BME280;26317;44.894;20.286;2024-03-08T03:06:04;101022.31;;;8.01;100.00
40612;BME280;26317;44.894;20.286;2024-03-08T03:08:46;101022.38;;;8.06;100.00
40612;BME280;26317;44.894;20.286;2024-03-08T03:11:44;101007.09;;;8.01;100.00
40612;BME280;26317;44.894;20.286;2024-03-08T03:14:25;101021.50;;;8.00;100.00
40612;BME280;26317;44.894;20.286;2024-03-08T03:17:07;101028.47;;;8.01;100.00
40612;BME280;26317;44.894;20.286;2024-03-08T03:19:46;101028.13;;;7.98;100.00
40612;BME280;26317;44.894;20.286;2024-03-08T03:22:25;101033.47;;;7.98;100.00
40612;BME280;26317;44.894;20.286;2024-03-08T03:25:13;101017.03;;;7.89;100.00
40612;BME280;26317;44.894;20.286;2024-03-08T03:28:08;101031.53;;;7.93;100.00
40612;BME280;26317;44.894;20.286;2024-03-08T03:30:52;101022.34;;;7.89;100.00
40612;BME280;26317;44.894;20.286;2024-03-08T03:33:41;101029.91;;;7.92;100.00
40612;BME280;26317;44.894;20.286;2024-03-08T03:36:19;100997.16;;;7.68;100.00
40612;BME280;26317;44.894;20.286;2024-03-08T03:38:57;101032.97;;;7.84;100.00
40612;BME280;26317;44.894;20.286;2024-03-08T03:41:43;101034.41;;;7.75;100.00
40612;BME280;26317;44.894;20.286;2024-03-08T03:44:32;101044.28;;;7.74;100.00
40612;BME280;26317;44.894;20.286;2024-03-08T03:47:13;101029.47;;;7.67;100.00
40612;BME280;26317;44.894;20.286;2024-03-08T03:49:54;101045.31;;;7.73;100.00
40612;BME280;26317;44.894;20.286;2024-03-08T03:52:53;101045.31;;;7.73;100.00
40612;BME280;26317;44.894;20.286;2024-03-08T03:55:36;101020.31;;;7.63;100.00
40612;BME280;26317;44.894;20.286;2024-03-08T03:58:12;101042.66;;;7.73;100.00
40612;BME280;26317;44.894;20.286;2024-03-08T04:00:57;101048.31;;;7.77;100.00
40612;BME280;26317;44.894;20.286;2024-03-08T04:03:42;101050.91;;;7.72;100.00
40612;BME280;26317;44.894;20.286;2024-03-08T04:06:19;101048.81;;;7.74;100.00
40612;BME280;26317;44.894;20.286;2024-03-08T04:08:56;101048.00;;;7.73;100.00
40612;BME280;26317;44.894;20.286;2024-03-08T04:11:42;101056.25;;;7.72;100.00
40612;BME280;26317;44.894;20.286;2024-03-08T04:14:18;101046.19;;;7.62;100.00
40612;BME280;26317;44.894;20.286;2024-03-08T04:17:11;101061.25;;;7.68;100.00
40612;BME280;26317;44.894;20.286;2024-03-08T04:19:59;101065.63;;;7.74;100.00
40612;BME280;26317;44.894;20.286;2024-03-08T04:22:43;101049.28;;;7.71;100.00
40612;BME280;26317;44.894;20.286;2024-03-08T04:25:18;101059.00;;;7.77;100.00
40612;BME280;26317;44.894;20.286;2024-03-08T04:28:00;101059.25;;;7.75;100.00
40612;BME280;26317;44.894;20.286;2024-03-08T04:30:37;101055.66;;;7.70;100.00
40612;BME280;26317;44.894;20.286;2024-03-08T04:33:26;101065.88;;;7.73;100.00
40612;BME280;26317;44.894;20.286;2024-03-08T04:36:10;101045.97;;;7.64;100.00
40612;BME280;26317;44.894;20.286;2024-03-08T04:38:54;101063.69;;;7.70;100.00
40612;BME280;26317;44.894;20.286;2024-03-08T04:41:30;101063.69;;;7.70;100.00
40612;BME280;26317;44.894;20.286;2024-03-08T04:44:13;101062.63;;;7.71;100.00
40612;BME280;26317;44.894;20.286;2024-03-08T04:46:47;101069.50;;;7.67;100.00
40612;BME280;26317;44.894;20.286;2024-03-08T04:49:38;101071.91;;;7.68;100.00
40612;BME280;26317;44.894;20.286;2024-03-08T04:52:21;101063.03;;;7.63;100.00
40612;BME280;26317;44.894;20.286;2024-03-08T04:55:00;101073.69;;;7.63;100.00
40612;BME280;26317;44.894;20.286;2024-03-08T04:57:48;101072.56;;;7.59;100.00
40612;BME280;26317;44.894;20.286;2024-03-08T05:00:25;101066.53;;;7.52;100.00
40612;BME280;26317;44.894;20.286;2024-03-08T05:03:07;101069.13;;;7.47;100.00
40612;BME280;26317;44.894;20.286;2024-03-08T05:06:04;101071.09;;;7.39;100.00
40612;BME280;26317;44.894;20.286;2024-03-08T05:08:47;101069.81;;;7.42;100.00
40612;BME280;26317;44.894;20.286;2024-03-08T05:11:27;101072.72;;;7.40;100.00
40612;BME280;26317;44.894;20.286;2024-03-08T05:14:14;101077.94;;;7.35;100.00
40612;BME280;26317;44.894;20.286;2024-03-08T05:16:51;101080.63;;;7.35;100.00
40612;BME280;26317;44.894;20.286;2024-03-08T05:19:29;101079.09;;;7.39;100.00
40612;BME280;26317;44.894;20.286;2024-03-08T05:22:15;101089.66;;;7.46;100.00
40612;BME280;26317;44.894;20.286;2024-03-08T05:25:17;101087.69;;;7.42;100.00
40612;BME280;26317;44.894;20.286;2024-03-08T05:27:50;101098.09;;;7.43;100.00
40612;BME280;26317;44.894;20.286;2024-03-08T05:30:25;101092.22;;;7.41;100.00
40612;BME280;26317;44.894;20.286;2024-03-08T05:33:15;101104.50;;;7.42;100.00
40612;BME280;26317;44.894;20.286;2024-03-08T05:35:57;101102.78;;;7.36;100.00
40612;BME280;26317;44.894;20.286;2024-03-08T05:38:46;101096.28;;;7.32;100.00
40612;BME280;26317;44.894;20.286;2024-03-08T05:41:34;101104.63;;;7.35;100.00
40612;BME280;26317;44.894;20.286;2024-03-08T05:44:09;101106.03;;;7.38;100.00
40612;BME280;26317;44.894;20.286;2024-03-08T05:46:55;101098.03;;;7.38;100.00
40612;BME280;26317;44.894;20.286;2024-03-08T05:49:44;101102.06;;;7.40;100.00
40612;BME280;26317;44.894;20.286;2024-03-08T05:52:25;101108.22;;;7.41;100.00
40612;BME280;26317;44.894;20.286;2024-03-08T05:55:25;101113.22;;;7.37;100.00
40612;BME280;26317;44.894;20.286;2024-03-08T05:58:07;101114.59;;;7.40;100.00
40612;BME280;26317;44.894;20.286;2024-03-08T06:00:44;101114.47;;;7.47;100.00
40612;BME280;26317;44.894;20.286;2024-03-08T06:03:23;101120.16;;;7.50;100.00
40612;BME280;26317;44.894;20.286;2024-03-08T06:06:07;101117.00;;;7.53;100.00
40612;BME280;26317;44.894;20.286;2024-03-08T06:08:49;101123.16;;;7.54;100.00
40612;BME280;26317;44.894;20.286;2024-03-08T06:11:40;101114.81;;;7.50;100.00
40612;BME280;26317;44.894;20.286;2024-03-08T06:14:15;101121.06;;;7.56;100.00
40612;BME280;26317;44.894;20.286;2024-03-08T06:17:05;101122.19;;;7.60;100.00
40612;BME280;26317;44.894;20.286;2024-03-08T06:19:47;101124.53;;;7.56;100.00
40612;BME280;26317;44.894;20.286;2024-03-08T06:22:22;101121.88;;;7.56;100.00
40612;BME280;26317;44.894;20.286;2024-03-08T06:25:03;101124.53;;;7.68;100.00
40612;BME280;26317;44.894;20.286;2024-03-08T06:27:52;101136.00;;;7.68;100.00
40612;BME280;26317;44.894;20.286;2024-03-08T06:30:27;101138.66;;;7.68;100.00
40612;BME280;26317;44.894;20.286;2024-03-08T06:33:05;101128.09;;;7.73;100.00
40612;BME280;26317;44.894;20.286;2024-03-08T06:35:48;101131.81;;;7.72;100.00
40612;BME280;26317;44.894;20.286;2024-03-08T06:38:29;101135.28;;;7.73;100.00
40612;BME280;26317;44.894;20.286;2024-03-08T06:41:33;101140.19;;;7.76;100.00
40612;BME280;26317;44.894;20.286;2024-03-08T06:44:25;101135.28;;;7.73;100.00
40612;BME280;26317;44.894;20.286;2024-03-08T06:47:02;101133.19;;;7.75;100.00
40612;BME280;26317;44.894;20.286;2024-03-08T06:49:41;101142.84;;;7.76;100.00
40612;BME280;26317;44.894;20.286;2024-03-08T06:52:22;101141.31;;;7.80;100.00
40612;BME280;26317;44.894;20.286;2024-03-08T06:55:10;101143.03;;;7.86;100.00
40612;BME280;26317;44.894;20.286;2024-03-08T06:57:47;101134.47;;;7.84;100.00
40612;BME280;26317;44.894;20.286;2024-03-08T07:00:34;101150.31;;;7.91;100.00
40612;BME280;26317;44.894;20.286;2024-03-08T07:03:13;101141.13;;;7.98;100.00
40612;BME280;26317;44.894;20.286;2024-03-08T07:05:48;101152.50;;;8.05;100.00
40612;BME280;26317;44.894;20.286;2024-03-08T07:08:25;101146.50;;;8.15;100.00
40612;BME280;26317;44.894;20.286;2024-03-08T07:11:07;101144.75;;;8.20;100.00
40612;BME280;26317;44.894;20.286;2024-03-08T07:13:49;101153.41;;;8.27;100.00
40612;BME280;26317;44.894;20.286;2024-03-08T07:16:41;101157.25;;;8.31;100.00
40612;BME280;26317;44.894;20.286;2024-03-08T07:19:16;101147.72;;;8.36;100.00
40612;BME280;26317;44.894;20.286;2024-03-08T07:22:07;101149.66;;;8.40;100.00
40612;BME280;26317;44.894;20.286;2024-03-08T07:24:48;101151.88;;;8.43;100.00
40612;BME280;26317;44.894;20.286;2024-03-08T07:27:49;101154.06;;;8.46;100.00
40612;BME280;26317;44.894;20.286;2024-03-08T07:30:28;101157.28;;;8.48;100.00
40612;BME280;26317;44.894;20.286;2024-03-08T07:36:19;101159.72;;;8.50;100.00
40612;BME280;26317;44.894;20.286;2024-03-08T07:39:04;101165.06;;;8.50;100.00
40612;BME280;26317;44.894;20.286;2024-03-08T07:41:48;101162.97;;;8.52;100.00
40612;BME280;26317;44.894;20.286;2024-03-08T07:44:28;101166.22;;;8.54;100.00
40612;BME280;26317;44.894;20.286;2024-03-08T07:49:52;101166.84;;;8.61;100.00
40612;BME280;26317;44.894;20.286;2024-03-08T07:52:54;101163.22;;;8.67;100.00
40612;BME280;26317;44.894;20.286;2024-03-08T07:55:38;101170.53;;;8.71;100.00
40612;BME280;26317;44.894;20.286;2024-03-08T07:58:32;101172.72;;;8.74;100.00
40612;BME280;26317;44.894;20.286;2024-03-08T08:01:16;101168.25;;;8.80;100.00
40612;BME280;26317;44.894;20.286;2024-03-08T08:03:57;101167.19;;;8.81;99.51
40612;BME280;26317;44.894;20.286;2024-03-08T08:06:34;101171.50;;;8.82;99.39
40612;BME280;26317;44.894;20.286;2024-03-08T08:09:17;101177.41;;;8.84;98.53
40612;BME280;26317;44.894;20.286;2024-03-08T08:12:00;101174.16;;;8.82;97.47
40612;BME280;26317;44.894;20.286;2024-03-08T08:14:41;101181.97;;;8.84;96.76
40612;BME280;26317;44.894;20.286;2024-03-08T08:17:26;101174.16;;;8.82;96.65
40612;BME280;26317;44.894;20.286;2024-03-08T08:19:58;101178.97;;;8.80;96.27
40612;BME280;26317;44.894;20.286;2024-03-08T08:22:37;101177.88;;;8.81;96.32
40612;BME280;26317;44.894;20.286;2024-03-08T08:25:31;101184.31;;;8.80;95.82
40612;BME280;26317;44.894;20.286;2024-03-08T08:28:08;101182.19;;;8.82;96.47
40612;BME280;26317;44.894;20.286;2024-03-08T08:30:52;101187.31;;;8.84;96.87
40612;BME280;26317;44.894;20.286;2024-03-08T08:33:40;101184.47;;;8.90;97.64
40612;BME280;26317;44.894;20.286;2024-03-08T08:36:19;101185.03;;;8.92;97.73
40612;BME280;26317;44.894;20.286;2024-03-08T08:38:49;101183.72;;;8.95;97.48
40612;BME280;26317;44.894;20.286;2024-03-08T08:41:34;101188.94;;;9.01;97.16
40612;BME280;26317;44.894;20.286;2024-03-08T08:44:07;101187.94;;;9.07;96.98
40612;BME280;26317;44.894;20.286;2024-03-08T08:46:54;101182.09;;;9.10;96.38
40612;BME280;26317;44.894;20.286;2024-03-08T08:49:47;101179.41;;;9.10;95.00
40612;BME280;26317;44.894;20.286;2024-03-08T08:52:31;101182.91;;;9.11;96.75
40612;BME280;26317;44.894;20.286;2024-03-08T08:55:07;101186.41;;;9.11;95.97
40612;BME280;26317;44.894;20.286;2024-03-08T08:58:02;101181.84;;;9.12;94.48
40612;BME280;26317;44.894;20.286;2024-03-08T09:00:38;101190.94;;;9.11;94.41
40612;BME280;26317;44.894;20.286;2024-03-08T09:03:24;101177.88;;;9.14;94.75
40612;BME280;26317;44.894;20.286;2024-03-08T09:06:07;101179.56;;;9.20;95.50
40612;BME280;26317;44.894;20.286;2024-03-08T09:08:49;101180.38;;;9.21;94.17
40612;BME280;26317;44.894;20.286;2024-03-08T09:11:33;101182.25;;;9.20;94.34
40612;BME280;26317;44.894;20.286;2024-03-08T09:14:11;101178.22;;;9.18;94.49
40612;BME280;26317;44.894;20.286;2024-03-08T09:16:45;101184.69;;;9.22;95.23
40612;BME280;26317;44.894;20.286;2024-03-08T09:19:17;101184.75;;;9.27;95.25
40612;BME280;26317;44.894;20.286;2024-03-08T09:22:14;101185.50;;;9.22;94.21
40612;BME280;26317;44.894;20.286;2024-03-08T09:24:50;101187.38;;;9.22;94.53
40612;BME280;26317;44.894;20.286;2024-03-08T09:27:29;101183.38;;;9.24;94.32
40612;BME280;26317;44.894;20.286;2024-03-08T09:30:27;101187.19;;;9.29;95.79
40612;BME280;26317;44.894;20.286;2024-03-08T09:33:18;101184.28;;;9.30;96.16
40612;BME280;26317;44.894;20.286;2024-03-08T09:36:07;101184.59;;;9.34;96.22
40612;BME280;26317;44.894;20.286;2024-03-08T09:38:42;101176.88;;;9.37;95.24
40612;BME280;26317;44.894;20.286;2024-03-08T09:41:15;101183.59;;;9.40;95.37
40612;BME280;26317;44.894;20.286;2024-03-08T09:43:54;101184.47;;;9.45;94.58
40612;BME280;26317;44.894;20.286;2024-03-08T09:46:37;101185.53;;;9.44;94.35
40612;BME280;26317;44.894;20.286;2024-03-08T09:49:16;101191.97;;;9.43;94.63
40612;BME280;26317;44.894;20.286;2024-03-08T09:51:55;101187.88;;;9.41;95.90
40612;BME280;26317;44.894;20.286;2024-03-08T09:54:36;101195.38;;;9.39;95.64
40612;BME280;26317;44.894;20.286;2024-03-08T09:57:11;101196.44;;;9.38;95.16
40612;BME280;26317;44.894;20.286;2024-03-08T09:59:49;101191.56;;;9.35;95.55
40612;BME280;26317;44.894;20.286;2024-03-08T10:02:38;101191.50;;;9.30;95.77
40612;BME280;26317;44.894;20.286;2024-03-08T10:05:17;101192.13;;;9.37;97.25
40612;BME280;26317;44.894;20.286;2024-03-08T10:07:56;101193.81;;;9.43;97.10
40612;BME280;26317;44.894;20.286;2024-03-08T10:10:33;101181.06;;;9.50;97.75
40612;BME280;26317;44.894;20.286;2024-03-08T10:13:20;101187.69;;;9.64;97.05
40612;BME280;26317;44.894;20.286;2024-03-08T10:15:53;101189.94;;;9.72;96.53
40612;BME280;26317;44.894;20.286;2024-03-08T10:18:33;101192.03;;;9.70;96.75
40612;BME280;26317;44.894;20.286;2024-03-08T10:21:11;101189.00;;;9.83;97.14
40612;BME280;26317;44.894;20.286;2024-03-08T10:23:56;101191.97;;;9.87;96.63
40612;BME280;26317;44.894;20.286;2024-03-08T10:26:44;101190.19;;;9.92;95.38
40612;BME280;26317;44.894;20.286;2024-03-08T10:29:21;101188.69;;;10.01;95.89
40612;BME280;26317;44.894;20.286;2024-03-08T10:32:03;101187.34;;;10.04;95.97
40612;BME280;26317;44.894;20.286;2024-03-08T10:35:02;101190.53;;;10.01;94.38
40612;BME280;26317;44.894;20.286;2024-03-08T10:37:47;101188.69;;;10.01;95.95
40612;BME280;26317;44.894;20.286;2024-03-08T10:40:30;101186.53;;;10.03;95.59
40612;BME280;26317;44.894;20.286;2024-03-08T10:43:18;101180.22;;;10.14;96.40
40612;BME280;26317;44.894;20.286;2024-03-08T10:46:01;101183.06;;;10.25;96.14
40612;BME280;26317;44.894;20.286;2024-03-08T10:48:46;101176.19;;;10.34;95.53
40612;BME280;26317;44.894;20.286;2024-03-08T10:51:42;101172.22;;;10.41;95.23
40612;BME280;26317;44.894;20.286;2024-03-08T10:54:18;101174.16;;;10.46;95.09
40612;BME280;26317;44.894;20.286;2024-03-08T10:56:54;101173.09;;;10.47;95.49
40612;BME280;26317;44.894;20.286;2024-03-08T10:59:47;101168.09;;;10.55;94.73
40612;BME280;26317;44.894;20.286;2024-03-08T11:02:29;101161.69;;;10.61;96.83
40612;BME280;26317;44.894;20.286;2024-03-08T11:05:05;101160.16;;;10.71;95.53
40612;BME280;26317;44.894;20.286;2024-03-08T11:08:00;101157.28;;;10.82;96.29
40612;BME280;26317;44.894;20.286;2024-03-08T11:10:45;101163.28;;;10.94;96.20
40612;BME280;26317;44.894;20.286;2024-03-08T11:13:35;101151.56;;;11.05;94.31
40612;BME280;26317;44.894;20.286;2024-03-08T11:16:36;101150.56;;;11.17;94.81
40612;BME280;26317;44.894;20.286;2024-03-08T11:19:25;101147.91;;;11.22;92.96
40612;BME280;26317;44.894;20.286;2024-03-08T11:22:05;101149.03;;;11.31;93.08
40612;BME280;26317;44.894;20.286;2024-03-08T11:24:51;101143.13;;;11.34;92.64
40612;BME280;26317;44.894;20.286;2024-03-08T11:27:44;101146.94;;;11.43;92.09
40612;BME280;26317;44.894;20.286;2024-03-08T11:30:31;101146.44;;;11.51;91.87
40612;BME280;26317;44.894;20.286;2024-03-08T11:33:13;101139.72;;;11.53;92.05
40612;BME280;26317;44.894;20.286;2024-03-08T11:35:53;101137.88;;;11.59;90.98
40612;BME280;26317;44.894;20.286;2024-03-08T11:38:45;101138.94;;;11.58;88.89
40612;BME280;26317;44.894;20.286;2024-03-08T11:41:36;101146.97;;;11.53;88.90
40612;BME280;26317;44.894;20.286;2024-03-08T11:44:17;101142.41;;;11.53;89.48
40612;BME280;26317;44.894;20.286;2024-03-08T11:46:54;101138.97;;;11.63;90.15
40612;BME280;26317;44.894;20.286;2024-03-08T11:49:36;101134.44;;;11.69;90.12
40612;BME280;26317;44.894;20.286;2024-03-08T11:52:18;101130.47;;;11.76;90.62
40612;BME280;26317;44.894;20.286;2024-03-08T11:55:06;101134.75;;;11.77;90.02
40612;BME280;26317;44.894;20.286;2024-03-08T11:57:58;101132.88;;;11.78;88.06
40612;BME280;26317;44.894;20.286;2024-03-08T12:00:48;101129.38;;;11.72;88.71
40612;BME280;26317;44.894;20.286;2024-03-08T12:03:26;101121.03;;;11.74;89.43
40612;BME280;26317;44.894;20.286;2024-03-08T12:06:06;101120.72;;;11.70;87.08
40612;BME280;26317;44.894;20.286;2024-03-08T12:08:45;101119.63;;;11.66;86.28
40612;BME280;26317;44.894;20.286;2024-03-08T12:11:24;101112.94;;;11.69;88.70
40612;BME280;26317;44.894;20.286;2024-03-08T12:14:16;101111.09;;;11.74;88.52
40612;BME280;26317;44.894;20.286;2024-03-08T12:16:52;101109.25;;;11.80;88.88
40612;BME280;26317;44.894;20.286;2024-03-08T12:19:32;101110.84;;;11.86;87.04
40612;BME280;26317;44.894;20.286;2024-03-08T12:22:15;101114.38;;;11.91;87.28
40612;BME280;26317;44.894;20.286;2024-03-08T12:25:06;101106.88;;;11.93;89.03
40612;BME280;26317;44.894;20.286;2024-03-08T12:28:06;101100.41;;;11.99;88.59
40612;BME280;26317;44.894;20.286;2024-03-08T12:30:53;101104.75;;;12.06;87.25
40612;BME280;26317;44.894;20.286;2024-03-08T12:33:32;101105.25;;;12.08;86.11
40612;BME280;26317;44.894;20.286;2024-03-08T12:36:20;101106.63;;;12.10;85.60
40612;BME280;26317;44.894;20.286;2024-03-08T12:38:58;101103.66;;;12.17;86.28
40612;BME280;26317;44.894;20.286;2024-03-08T12:41:46;101102.63;;;12.23;83.61
40612;BME280;26317;44.894;20.286;2024-03-08T12:44:20;101102.06;;;12.26;83.59
40612;BME280;26317;44.894;20.286;2024-03-08T12:47:09;101104.19;;;12.24;83.96
40612;BME280;26317;44.894;20.286;2024-03-08T12:49:49;101106.91;;;12.19;84.36
40612;BME280;26317;44.894;20.286;2024-03-08T12:52:30;101102.59;;;12.18;83.98
40612;BME280;26317;44.894;20.286;2024-03-08T12:55:07;101100.72;;;12.18;85.73
40612;BME280;26317;44.894;20.286;2024-03-08T12:57:57;101098.31;;;12.27;85.73
40612;BME280;26317;44.894;20.286;2024-03-08T13:00:38;101094.53;;;12.38;86.27
40612;BME280;26317;44.894;20.286;2024-03-08T13:03:24;101093.19;;;12.51;84.85
40612;BME280;26317;44.894;20.286;2024-03-08T13:06:03;101100.72;;;12.59;85.17
40612;BME280;26317;44.894;20.286;2024-03-08T13:08:48;101092.91;;;12.67;80.97
40612;BME280;26317;44.894;20.286;2024-03-08T13:11:25;101094.00;;;12.71;82.99
40612;BME280;26317;44.894;20.286;2024-03-08T13:14:00;101085.91;;;12.81;81.66
40612;BME280;26317;44.894;20.286;2024-03-08T13:16:45;101084.28;;;12.85;80.90
40612;BME280;26317;44.894;20.286;2024-03-08T13:19:23;101084.81;;;12.87;81.82
40612;BME280;26317;44.894;20.286;2024-03-08T13:22:03;101087.50;;;12.87;79.95
40612;BME280;26317;44.894;20.286;2024-03-08T13:24:45;101083.44;;;12.90;78.95
40612;BME280;26317;44.894;20.286;2024-03-08T13:27:33;101089.66;;;12.90;78.23
40612;BME280;26317;44.894;20.286;2024-03-08T13:30:18;101088.03;;;12.95;79.02
40612;BME280;26317;44.894;20.286;2024-03-08T13:33:01;101085.31;;;13.00;79.98
40612;BME280;26317;44.894;20.286;2024-03-08T13:35:56;101086.41;;;12.99;79.96
40612;BME280;26317;44.894;20.286;2024-03-08T13:38:35;101082.06;;;13.03;79.13
40612;BME280;26317;44.894;20.286;2024-03-08T13:41:20;101083.44;;;13.00;80.42
40612;BME280;26317;44.894;20.286;2024-03-08T13:43:52;101085.31;;;13.00;81.64
40612;BME280;26317;44.894;20.286;2024-03-08T13:46:33;101083.69;;;12.99;81.87
40612;BME280;26317;44.894;20.286;2024-03-08T13:49:12;101084.81;;;12.98;80.18
40612;BME280;26317;44.894;20.286;2024-03-08T13:52:06;101077.25;;;12.95;80.00
40612;BME280;26317;44.894;20.286;2024-03-08T13:54:50;101079.41;;;12.93;80.10
40612;BME280;26317;44.894;20.286;2024-03-08T13:57:34;101075.38;;;12.90;80.20
40612;BME280;26317;44.894;20.286;2024-03-08T14:00:11;101074.59;;;12.89;80.38
40612;BME280;26317;44.894;20.286;2024-03-08T14:03:03;101072.97;;;12.88;81.02
40612;BME280;26317;44.894;20.286;2024-03-08T14:05:42;101073.22;;;12.82;79.36
40612;BME280;26317;44.894;20.286;2024-03-08T14:08:20;101064.38;;;12.81;81.30
40612;BME280;26317;44.894;20.286;2024-03-08T14:11:01;101071.34;;;12.82;81.45